George S. — A8TJ9 — position and weather

sailwx.info

Track history (hours):
 
Tides and Currents Weather Stations Pressure Air Temp Water Temp Dewpoint Dewpoint Depression Visibility Wind Speed Wind Dir Waves Ship Positions

George S.

Last reported at 2017-Jul-19 21:37 UTC. Time now 2017-Jul-21 19:01 UTC.
Position N 35°23' W 007°32'.

Length 274 m; draft 9.3 m.

Type: Tanker. MMSI: 636014372.

Date/timePositionNaut miles runAvg speedWind from/ knotsBaromVisibWave heightAir tempDewpointWater temp
2017-Jul-19 21:37N 35°23' W 007°32'23 1.6
2017-Jul-19 07:20N 35°28' W 007°59'1 1.7
2017-Jul-19 06:52N 35°28' W 008°00'1 1.6
2017-Jul-19 06:27N 35°29' W 008°01'1 1.7
2017-Jul-19 06:00N 35°29' W 008°02'1 1.6
2017-Jul-19 05:06N 35°30' W 008°03'0 1.5
2017-Jul-19 04:55N 35°30' W 008°04'1 1.6
2017-Jul-19 04:30N 35°30' W 008°04'1 1.8
2017-Jul-19 03:59N 35°30' W 008°06'1 1.8
2017-Jul-19 03:30N 35°31' W 008°07'1 2.0
2017-Jul-19 02:47N 35°31' W 008°08'1 1.9
2017-Jul-19 02:09N 35°31' W 008°10'1 1.8
2017-Jul-19 01:36N 35°32' W 008°11'1 2.0
2017-Jul-19 00:52N 35°32' W 008°12'1 2.1
2017-Jul-19 00:28N 35°32' W 008°13'2 4.9
2017-Jul-18 23:58N 35°32' W 008°16'713.0
2017-Jul-18 23:26N 35°33' W 008°25'614.9
2017-Jul-18 23:00N 35°34' W 008°33'714.7
2017-Jul-18 22:31N 35°35' W 008°42'712.8
2017-Jul-18 21:58N 35°36' W 008°50'810.6
2017-Jul-18 21:11N 35°37' W 009°00'210.8
2017-Jul-18 20:59N 35°38' W 009°03'810.6
2017-Jul-18 20:13N 35°39' W 009°13'1110.7
2017-Jul-18 19:14N 35°40' W 009°25'310.8
2017-Jul-18 18:57N 35°41' W 009°29'510.6
2017-Jul-18 18:30N 35°41' W 009°35'510.5
2017-Jul-18 18:00N 35°42' W 009°41'510.3
2017-Jul-18 17:30N 35°43' W 009°48'610.3
2017-Jul-18 16:56N 35°44' W 009°55'510.4
2017-Jul-18 16:26N 35°45' W 010°01'2810.4
2017-Jul-18 13:47N 35°47' W 010°35'2 7.1
2017-Jul-18 13:29N 35°47' W 010°38'1 2.5
2017-Jul-18 13:00N 35°48' W 010°37'3 1.6
2017-Jul-18 11:28N 35°51' W 010°36'1 1.6
2017-Jul-18 10:32N 35°52' W 010°36'1 1.6
2017-Jul-18 10:12N 35°53' W 010°35'0 1.6
2017-Jul-18 10:00N 35°53' W 010°35'2 1.6
2017-Jul-18 08:31N 35°55' W 010°34'0 1.6
2017-Jul-18 08:24N 35°55' W 010°34'1 1.5
2017-Jul-18 08:00N 35°56' W 010°34'1 1.5
2017-Jul-18 07:30N 35°57' W 010°34'1 1.7
2017-Jul-18 06:57N 35°57' W 010°33'2 3.1
2017-Jul-18 06:22N 35°59' W 010°32'1110.0
2017-Jul-18 05:16N 36°09' W 010°25'310.8
2017-Jul-18 04:59N 36°11' W 010°23'910.8
2017-Jul-18 04:12N 36°19' W 010°18'210.8
2017-Jul-18 03:59N 36°21' W 010°16'611.0
2017-Jul-18 03:24N 36°26' W 010°13'411.0
2017-Jul-18 03:00N 36°30' W 010°10'610.9
2017-Jul-18 02:30N 36°35' W 010°06'510.7
2017-Jul-18 02:00N 36°39' W 010°03'510.9
2017-Jul-18 01:30N 36°44' W 009°60'510.9
2017-Jul-18 01:00N 36°48' W 009°56'510.7
2017-Jul-18 00:30N 36°53' W 009°53'510.8
2017-Jul-18 00:00N 36°58' W 009°50'510.8
2017-Jul-17 23:30N 37°02' W 009°46'510.7
2017-Jul-17 23:00N 37°07' W 009°43'510.7
2017-Jul-17 22:30N 37°11' W 009°38'510.9
2017-Jul-17 22:00N 37°15' W 009°34'611.1
2017-Jul-17 21:30N 37°19' W 009°29'611.2
2017-Jul-17 21:00N 37°23' W 009°24'611.6
2017-Jul-17 20:30N 37°28' W 009°19'611.4
2017-Jul-17 20:00N 37°32' W 009°14'611.3
2017-Jul-17 19:30N 37°36' W 009°09'611.0
2017-Jul-17 19:00N 37°40' W 009°05'611.2
2017-Jul-17 18:30N 37°44' W 008°60'611.2
2017-Jul-17 18:00N 37°48' W 008°55'5 9.6
2017-Jul-17 17:30N 37°53' W 008°53'0 0.6
2017-Jul-17 16:59N 37°53' W 008°52'0 0.0
2017-Jul-17 16:29N 37°53' W 008°52'0 0.0
2017-Jul-17 15:59N 37°53' W 008°52'0 0.0
2017-Jul-17 15:29N 37°53' W 008°52'0 0.0
2017-Jul-17 14:59N 37°53' W 008°52'0 0.0
2017-Jul-17 14:29N 37°53' W 008°52'0 0.0
2017-Jul-17 13:59N 37°53' W 008°52'0 0.0
2017-Jul-17 13:29N 37°53' W 008°52'0 0.1
2017-Jul-17 12:59N 37°53' W 008°52'0 0.0
2017-Jul-17 12:29N 37°53' W 008°52'0 0.1
2017-Jul-17 11:59N 37°53' W 008°52'0 0.0
2017-Jul-17 11:29N 37°53' W 008°52'0 0.0
2017-Jul-17 10:59N 37°53' W 008°52'0 0.0
2017-Jul-17 10:29N 37°53' W 008°52'0 0.0
2017-Jul-17 09:59N 37°53' W 008°52'0 0.0
2017-Jul-17 09:29N 37°53' W 008°52'0 0.0
2017-Jul-17 08:59N 37°53' W 008°52'0 0.0
2017-Jul-17 08:29N 37°53' W 008°52'0 0.0
2017-Jul-17 07:59N 37°53' W 008°52'0 0.0
2017-Jul-17 07:29N 37°53' W 008°52'0 0.0
2017-Jul-17 06:59N 37°53' W 008°52'0 0.0
2017-Jul-17 06:29N 37°53' W 008°52'0 0.0
2017-Jul-17 05:59N 37°53' W 008°52'0 0.0
2017-Jul-17 05:29N 37°53' W 008°52'0 0.0
2017-Jul-17 04:58N 37°53' W 008°52'0 0.0
2017-Jul-17 04:29N 37°53' W 008°52'0 0.0
2017-Jul-17 03:59N 37°53' W 008°52'0 0.1
2017-Jul-17 03:29N 37°53' W 008°52'0 0.0
2017-Jul-17 02:59N 37°53' W 008°52'0 0.0
2017-Jul-17 02:29N 37°53' W 008°52'0 0.0
2017-Jul-17 01:59N 37°53' W 008°52'0 0.1
2017-Jul-17 01:29N 37°53' W 008°52'0 0.0
2017-Jul-17 00:59N 37°53' W 008°52'0 0.0
2017-Jul-17 00:29N 37°53' W 008°52'0 0.1
2017-Jul-16 23:59N 37°53' W 008°52'0 0.0
2017-Jul-16 23:29N 37°53' W 008°52'0 0.0
2017-Jul-16 22:59N 37°53' W 008°52'0 0.0
2017-Jul-16 22:29N 37°53' W 008°52'0 0.0
2017-Jul-16 21:56N 37°53' W 008°52'0 0.1
2017-Jul-16 21:29N 37°53' W 008°52'0 0.1
2017-Jul-16 20:59N 37°53' W 008°52'0 0.0
2017-Jul-16 20:29N 37°53' W 008°52'0 0.5
2017-Jul-16 19:59N 37°53' W 008°52'1 2.8
2017-Jul-16 19:30N 37°54' W 008°52'3 5.4
2017-Jul-16 19:00N 37°57' W 008°53'0 0.1
2017-Jul-16 18:28N 37°57' W 008°53'0 0.0
2017-Jul-16 17:58N 37°57' W 008°53'0 0.0
2017-Jul-16 17:28N 37°57' W 008°53'0 0.0
2017-Jul-16 16:58N 37°57' W 008°53'0 0.0
2017-Jul-16 16:28N 37°57' W 008°53'0 0.0
2017-Jul-16 15:58N 37°57' W 008°53'0 0.0
2017-Jul-16 15:28N 37°57' W 008°53'0 0.0
2017-Jul-16 14:58N 37°57' W 008°53'0 0.0
2017-Jul-16 14:25N 37°57' W 008°53'0 0.0
2017-Jul-16 13:58N 37°57' W 008°53'0 0.0
2017-Jul-16 13:28N 37°57' W 008°53'0 0.0
2017-Jul-16 12:58N 37°57' W 008°53'0 0.4
2017-Jul-16 12:30N 37°57' W 008°53'2 3.6
2017-Jul-16 12:01N 37°55' W 008°53'1 2.9
2017-Jul-16 11:30N 37°53' W 008°52'0 0.5
2017-Jul-16 10:58N 37°53' W 008°52'0 0.0
2017-Jul-16 10:28N 37°53' W 008°52'0 0.0
2017-Jul-16 09:58N 37°53' W 008°52'0 0.1
2017-Jul-16 09:28N 37°53' W 008°52'0 0.0
2017-Jul-16 09:00N 37°53' W 008°52'0 0.0
2017-Jul-16 08:28N 37°53' W 008°52'0 0.0
2017-Jul-16 07:58N 37°53' W 008°52'0 0.0
2017-Jul-16 07:28N 37°53' W 008°52'0 0.0
2017-Jul-16 06:58N 37°53' W 008°52'0 0.0
2017-Jul-16 06:28N 37°53' W 008°52'0 0.4
2017-Jul-16 05:58N 37°53' W 008°52'0 1.1
2017-Jul-16 05:30N 37°54' W 008°53'1 1.8
2017-Jul-16 05:00N 37°54' W 008°54'2 3.8
2017-Jul-16 04:30N 37°53' W 008°52'0 0.3
2017-Jul-16 04:00N 37°53' W 008°52'0 0.1
2017-Jul-16 03:30N 37°53' W 008°52'0 0.1
2017-Jul-16 03:00N 37°53' W 008°52'0 0.0
2017-Jul-16 02:30N 37°53' W 008°52'0 0.0
2017-Jul-16 02:00N 37°53' W 008°52'0 0.1
2017-Jul-16 01:30N 37°53' W 008°52'0 0.0
2017-Jul-16 01:00N 37°53' W 008°52'0 0.0
2017-Jul-16 00:30N 37°53' W 008°52'0 0.0
2017-Jul-16 00:00N 37°53' W 008°52'0 0.0
2017-Jul-15 23:30N 37°53' W 008°52'0 0.0
2017-Jul-15 23:00N 37°53' W 008°52'0 0.3
2017-Jul-15 22:30N 37°53' W 008°52'0 0.4
2017-Jul-15 22:00N 37°53' W 008°52'0 0.1
2017-Jul-15 21:30N 37°53' W 008°52'2 3.5
2017-Jul-15 21:00N 37°54' W 008°54'4 7.4
2017-Jul-15 20:30N 37°54' W 008°59'611.8
2017-Jul-15 20:00N 37°54' W 009°07'713.2
2017-Jul-15 19:30N 37°58' W 009°13'713.4
2017-Jul-15 19:00N 38°03' W 009°19'713.4
2017-Jul-15 18:31N 38°07' W 009°26'713.2
2017-Jul-15 18:00N 38°12' W 009°32'713.4
2017-Jul-15 17:30N 38°16' W 009°38'713.2
2017-Jul-15 17:00N 38°21' W 009°45'713.4
2017-Jul-15 16:30N 38°25' W 009°51'713.6
2017-Jul-15 16:00N 38°29' W 009°58'713.8
2017-Jul-15 15:30N 38°34' W 010°04'714.3
2017-Jul-15 15:01N 38°41' W 010°06'1313.2
2017-Jul-15 14:00N 38°55' W 010°05'713.4
2017-Jul-15 13:30N 39°01' W 010°01'713.6
2017-Jul-15 13:01N 39°07' W 009°58'713.5
2017-Jul-15 12:30N 39°13' W 009°54'713.5
2017-Jul-15 12:01N 39°20' W 009°51'713.4
2017-Jul-15 11:30N 39°26' W 009°48'713.0
2017-Jul-15 11:00N 39°32' W 009°45'713.3
2017-Jul-15 10:30N 39°38' W 009°41'713.5
2017-Jul-15 10:00N 39°44' W 009°38'713.5
2017-Jul-15 09:30N 39°50' W 009°35'713.5
2017-Jul-15 09:00N 39°56' W 009°31'613.0
2017-Jul-15 08:31N 40°03' W 009°28'713.4
2017-Jul-15 08:00N 40°09' W 009°25'713.1
2017-Jul-15 07:30N 40°15' W 009°21'713.1
2017-Jul-15 07:01N 40°21' W 009°18'713.2
2017-Jul-15 06:30N 40°27' W 009°15'713.4
2017-Jul-15 06:00N 40°33' W 009°11'713.3
2017-Jul-15 05:31N 40°39' W 009°08'713.3
2017-Jul-15 05:00N 40°45' W 009°05'712.9
2017-Jul-15 04:27N 40°52' W 009°01'612.7
2017-Jul-15 03:57N 40°58' W 008°58'1312.4
2017-Jul-15 02:54N 41°09' W 008°48'4 9.1
2017-Jul-15 02:30N 41°11' W 008°44'1 2.8
2017-Jul-15 02:00N 41°12' W 008°45'0 0.0
2017-Jul-14 19:55N 41°12' W 008°45'0 0.0
2017-Jul-14 19:13N 41°12' W 008°45'0 0.1
2017-Jul-14 18:55N 41°12' W 008°45'0 0.0
2017-Jul-14 17:22N 41°12' W 008°45'0 0.7
2017-Jul-14 17:00N 41°12' W 008°45'2 3.2
2017-Jul-14 16:29N 41°10' W 008°46'1 1.8
2017-Jul-14 16:01N 41°10' W 008°46'1 2.6
2017-Jul-14 15:30N 41°09' W 008°48'0 0.3
2017-Jul-14 14:59N 41°09' W 008°48'0 0.0
2017-Jul-14 14:05N 41°09' W 008°48'0 0.1
2017-Jul-14 13:59N 41°09' W 008°48'0 0.0
2017-Jul-14 13:23N 41°09' W 008°48'0 0.0
2017-Jul-14 12:59N 41°09' W 008°48'0 0.0
2017-Jul-14 12:29N 41°09' W 008°48'0 0.0
2017-Jul-14 11:59N 41°09' W 008°48'0 0.0
2017-Jul-14 11:29N 41°09' W 008°48'0 0.0
2017-Jul-14 10:59N 41°09' W 008°48'0 0.0
2017-Jul-14 10:29N 41°09' W 008°48'0 0.0
2017-Jul-14 09:56N 41°09' W 008°48'0 0.0
2017-Jul-14 09:29N 41°09' W 008°48'0 0.0
2017-Jul-14 08:59N 41°09' W 008°48'0 0.0
2017-Jul-14 08:29N 41°09' W 008°48'0 0.0
2017-Jul-14 07:59N 41°09' W 008°48'0 0.0
2017-Jul-14 07:29N 41°09' W 008°48'0 0.0
2017-Jul-14 06:59N 41°09' W 008°48'0 0.0
2017-Jul-14 06:29N 41°09' W 008°48'0 0.0
2017-Jul-14 05:59N 41°09' W 008°48'0 0.0
2017-Jul-14 05:29N 41°09' W 008°48'0 0.0
2017-Jul-14 04:56N 41°09' W 008°48'0 0.0
2017-Jul-14 04:29N 41°09' W 008°48'0 0.0
2017-Jul-14 03:59N 41°09' W 008°48'0 0.0
2017-Jul-14 03:26N 41°09' W 008°48'0 0.0
2017-Jul-14 02:50N 41°09' W 008°48'0 0.1
2017-Jul-14 02:20N 41°09' W 008°48'0 0.0
2017-Jul-14 01:59N 41°09' W 008°48'0 0.0
2017-Jul-14 01:29N 41°09' W 008°48'0 0.0
2017-Jul-14 00:59N 41°09' W 008°48'0 0.0
2017-Jul-14 00:26N 41°09' W 008°48'0 0.0
2017-Jul-13 23:59N 41°09' W 008°48'0 0.1
2017-Jul-13 23:29N 41°09' W 008°48'0 0.0
2017-Jul-13 22:59N 41°09' W 008°48'0 0.0
2017-Jul-13 22:29N 41°09' W 008°48'0 0.0
2017-Jul-13 21:59N 41°09' W 008°48'0 0.0
2017-Jul-13 21:29N 41°09' W 008°48'0 0.1
2017-Jul-13 20:59N 41°09' W 008°48'0 0.0
2017-Jul-13 20:29N 41°09' W 008°48'0 0.0
2017-Jul-13 19:59N 41°09' W 008°48'0 0.0
2017-Jul-13 19:29N 41°09' W 008°48'0 0.0
2017-Jul-13 18:59N 41°09' W 008°48'0 0.1
2017-Jul-13 18:23N 41°09' W 008°48'0 0.0
2017-Jul-13 17:53N 41°09' W 008°48'0 0.2
2017-Jul-13 17:29N 41°09' W 008°48'0 0.0
2017-Jul-13 16:59N 41°09' W 008°48'0 0.0
2017-Jul-13 16:11N 41°09' W 008°48'0 0.1
2017-Jul-13 15:53N 41°09' W 008°48'0 0.1
2017-Jul-13 15:20N 41°09' W 008°48'0 0.3
2017-Jul-13 14:59N 41°09' W 008°48'0 0.0
2017-Jul-13 14:11N 41°09' W 008°48'0 0.0
2017-Jul-12 19:23N 41°09' W 008°48'0 0.0
2017-Jul-12 18:53N 41°09' W 008°48'0 0.0
2017-Jul-12 17:59N 41°09' W 008°48'0 0.1
2017-Jul-12 17:17N 41°09' W 008°48'0 0.0
2017-Jul-12 16:53N 41°09' W 008°48'0 0.0
2017-Jul-12 16:26N 41°09' W 008°48'0 0.0
2017-Jul-12 15:59N 41°09' W 008°48'4 0.2
2017-Jul-11 17:13N 41°06' W 008°52'0 1.7
2017-Jul-11 17:00N 41°07' W 008°52'1 1.7
2017-Jul-11 16:29N 41°07' W 008°53'1 1.5
2017-Jul-11 16:00N 41°08' W 008°54'1 1.5
2017-Jul-11 15:30N 41°08' W 008°54'1 1.5
2017-Jul-11 14:50N 41°09' W 008°55'0 1.5
2017-Jul-11 14:30N 41°10' W 008°56'1 1.5
2017-Jul-11 14:00N 41°10' W 008°56'1 1.5
2017-Jul-11 13:30N 41°11' W 008°57'1 1.5
2017-Jul-11 13:00N 41°11' W 008°58'1 1.6
2017-Jul-11 12:30N 41°11' W 008°59'1 1.6
2017-Jul-11 12:00N 41°12' W 008°59'1 1.5
2017-Jul-11 11:30N 41°13' W 009°00'1 1.5
2017-Jul-11 11:00N 41°13' W 009°01'1 1.5
2017-Jul-11 10:16N 41°14' W 009°02'1 1.1
2017-Jul-11 09:47N 41°14' W 009°03'1 2.8
2017-Jul-11 09:30N 41°13' W 009°02'6 9.0
2017-Jul-11 08:48N 41°08' W 008°58'412.1
2017-Jul-11 08:30N 41°04' W 008°55'4 1.9
2017-Jul-11 06:08N 41°00' W 008°53'1 1.6
2017-Jul-11 05:46N 41°01' W 008°53'1 1.7
2017-Jul-11 05:22N 41°01' W 008°54'1 1.8
2017-Jul-11 05:00N 41°02' W 008°54'4 1.8
2017-Jul-11 02:56N 41°05' W 008°57'1 1.9
2017-Jul-11 02:30N 41°06' W 008°58'2 2.0
2017-Jul-11 01:26N 41°07' W 009°00'1 2.1
2017-Jul-11 00:53N 41°08' W 009°01'1 2.1
2017-Jul-11 00:30N 41°08' W 009°02'1 2.1
2017-Jul-10 23:59N 41°09' W 009°03'1 2.1
2017-Jul-10 23:18N 41°10' W 009°05'1 2.1
2017-Jul-10 22:58N 41°10' W 009°05'  
Track history (hours):
 
Tides and Currents Weather Stations Pressure Air Temp Water Temp Dewpoint Dewpoint Depression Visibility Wind Speed Wind Dir Waves Ship Positions

George S.

Last reported at 2017-Jul-19 21:37 UTC. Time now 2017-Jul-21 19:01 UTC.
Position N 35°23' W 007°32'.

Length 274 m; draft 9.3 m.

Type: Tanker. MMSI: 636014372.

Date/timePositionNaut miles runAvg speedWind from/ knotsBaromVisibWave heightAir tempDewpointWater temp
2017-Jul-19 21:37N 35°23' W 007°32'23 1.6
2017-Jul-19 07:20N 35°28' W 007°59'1 1.7
2017-Jul-19 06:52N 35°28' W 008°00'1 1.6
2017-Jul-19 06:27N 35°29' W 008°01'1 1.7
2017-Jul-19 06:00N 35°29' W 008°02'1 1.6
2017-Jul-19 05:06N 35°30' W 008°03'0 1.5
2017-Jul-19 04:55N 35°30' W 008°04'1 1.6
2017-Jul-19 04:30N 35°30' W 008°04'1 1.8
2017-Jul-19 03:59N 35°30' W 008°06'1 1.8
2017-Jul-19 03:30N 35°31' W 008°07'1 2.0
2017-Jul-19 02:47N 35°31' W 008°08'1 1.9
2017-Jul-19 02:09N 35°31' W 008°10'1 1.8
2017-Jul-19 01:36N 35°32' W 008°11'1 2.0
2017-Jul-19 00:52N 35°32' W 008°12'1 2.1
2017-Jul-19 00:28N 35°32' W 008°13'2 4.9
2017-Jul-18 23:58N 35°32' W 008°16'713.0
2017-Jul-18 23:26N 35°33' W 008°25'614.9
2017-Jul-18 23:00N 35°34' W 008°33'714.7
2017-Jul-18 22:31N 35°35' W 008°42'712.8
2017-Jul-18 21:58N 35°36' W 008°50'810.6
2017-Jul-18 21:11N 35°37' W 009°00'210.8
2017-Jul-18 20:59N 35°38' W 009°03'810.6
2017-Jul-18 20:13N 35°39' W 009°13'1110.7
2017-Jul-18 19:14N 35°40' W 009°25'310.8
2017-Jul-18 18:57N 35°41' W 009°29'510.6
2017-Jul-18 18:30N 35°41' W 009°35'510.5
2017-Jul-18 18:00N 35°42' W 009°41'510.3
2017-Jul-18 17:30N 35°43' W 009°48'610.3
2017-Jul-18 16:56N 35°44' W 009°55'510.4
2017-Jul-18 16:26N 35°45' W 010°01'2810.4
2017-Jul-18 13:47N 35°47' W 010°35'2 7.1
2017-Jul-18 13:29N 35°47' W 010°38'1 2.5
2017-Jul-18 13:00N 35°48' W 010°37'3 1.6
2017-Jul-18 11:28N 35°51' W 010°36'1 1.6
2017-Jul-18 10:32N 35°52' W 010°36'1 1.6
2017-Jul-18 10:12N 35°53' W 010°35'0 1.6
2017-Jul-18 10:00N 35°53' W 010°35'2 1.6
2017-Jul-18 08:31N 35°55' W 010°34'0 1.6
2017-Jul-18 08:24N 35°55' W 010°34'1 1.5
2017-Jul-18 08:00N 35°56' W 010°34'1 1.5
2017-Jul-18 07:30N 35°57' W 010°34'1 1.7
2017-Jul-18 06:57N 35°57' W 010°33'2 3.1
2017-Jul-18 06:22N 35°59' W 010°32'1110.0
2017-Jul-18 05:16N 36°09' W 010°25'310.8
2017-Jul-18 04:59N 36°11' W 010°23'910.8
2017-Jul-18 04:12N 36°19' W 010°18'210.8
2017-Jul-18 03:59N 36°21' W 010°16'611.0
2017-Jul-18 03:24N 36°26' W 010°13'411.0
2017-Jul-18 03:00N 36°30' W 010°10'610.9
2017-Jul-18 02:30N 36°35' W 010°06'510.7
2017-Jul-18 02:00N 36°39' W 010°03'510.9
2017-Jul-18 01:30N 36°44' W 009°60'510.9
2017-Jul-18 01:00N 36°48' W 009°56'510.7
2017-Jul-18 00:30N 36°53' W 009°53'510.8
2017-Jul-18 00:00N 36°58' W 009°50'510.8
2017-Jul-17 23:30N 37°02' W 009°46'510.7
2017-Jul-17 23:00N 37°07' W 009°43'510.7
2017-Jul-17 22:30N 37°11' W 009°38'510.9
2017-Jul-17 22:00N 37°15' W 009°34'611.1
2017-Jul-17 21:30N 37°19' W 009°29'611.2
2017-Jul-17 21:00N 37°23' W 009°24'611.6
2017-Jul-17 20:30N 37°28' W 009°19'611.4
2017-Jul-17 20:00N 37°32' W 009°14'611.3
2017-Jul-17 19:30N 37°36' W 009°09'611.0
2017-Jul-17 19:00N 37°40' W 009°05'611.2
2017-Jul-17 18:30N 37°44' W 008°60'611.2
2017-Jul-17 18:00N 37°48' W 008°55'5 9.6
2017-Jul-17 17:30N 37°53' W 008°53'0 0.6
2017-Jul-17 16:59N 37°53' W 008°52'0 0.0
2017-Jul-17 16:29N 37°53' W 008°52'0 0.0
2017-Jul-17 15:59N 37°53' W 008°52'0 0.0
2017-Jul-17 15:29N 37°53' W 008°52'0 0.0
2017-Jul-17 14:59N 37°53' W 008°52'0 0.0
2017-Jul-17 14:29N 37°53' W 008°52'0 0.0
2017-Jul-17 13:59N 37°53' W 008°52'0 0.0
2017-Jul-17 13:29N 37°53' W 008°52'0 0.1
2017-Jul-17 12:59N 37°53' W 008°52'0 0.0
2017-Jul-17 12:29N 37°53' W 008°52'0 0.1
2017-Jul-17 11:59N 37°53' W 008°52'0 0.0
2017-Jul-17 11:29N 37°53' W 008°52'0 0.0
2017-Jul-17 10:59N 37°53' W 008°52'0 0.0
2017-Jul-17 10:29N 37°53' W 008°52'0 0.0
2017-Jul-17 09:59N 37°53' W 008°52'0 0.0
2017-Jul-17 09:29N 37°53' W 008°52'0 0.0
2017-Jul-17 08:59N 37°53' W 008°52'0 0.0
2017-Jul-17 08:29N 37°53' W 008°52'0 0.0
2017-Jul-17 07:59N 37°53' W 008°52'0 0.0
2017-Jul-17 07:29N 37°53' W 008°52'0 0.0
2017-Jul-17 06:59N 37°53' W 008°52'0 0.0
2017-Jul-17 06:29N 37°53' W 008°52'0 0.0
2017-Jul-17 05:59N 37°53' W 008°52'0 0.0
2017-Jul-17 05:29N 37°53' W 008°52'0 0.0
2017-Jul-17 04:58N 37°53' W 008°52'0 0.0
2017-Jul-17 04:29N 37°53' W 008°52'0 0.0
2017-Jul-17 03:59N 37°53' W 008°52'0 0.1
2017-Jul-17 03:29N 37°53' W 008°52'0 0.0
2017-Jul-17 02:59N 37°53' W 008°52'0 0.0
2017-Jul-17 02:29N 37°53' W 008°52'0 0.0
2017-Jul-17 01:59N 37°53' W 008°52'0 0.1
2017-Jul-17 01:29N 37°53' W 008°52'0 0.0
2017-Jul-17 00:59N 37°53' W 008°52'0 0.0
2017-Jul-17 00:29N 37°53' W 008°52'0 0.1
2017-Jul-16 23:59N 37°53' W 008°52'0 0.0
2017-Jul-16 23:29N 37°53' W 008°52'0 0.0
2017-Jul-16 22:59N 37°53' W 008°52'0 0.0
2017-Jul-16 22:29N 37°53' W 008°52'0 0.0
2017-Jul-16 21:56N 37°53' W 008°52'0 0.1
2017-Jul-16 21:29N 37°53' W 008°52'0 0.1
2017-Jul-16 20:59N 37°53' W 008°52'0 0.0
2017-Jul-16 20:29N 37°53' W 008°52'0 0.5
2017-Jul-16 19:59N 37°53' W 008°52'1 2.8
2017-Jul-16 19:30N 37°54' W 008°52'3 5.4
2017-Jul-16 19:00N 37°57' W 008°53'0 0.1
2017-Jul-16 18:28N 37°57' W 008°53'0 0.0
2017-Jul-16 17:58N 37°57' W 008°53'0 0.0
2017-Jul-16 17:28N 37°57' W 008°53'0 0.0
2017-Jul-16 16:58N 37°57' W 008°53'0 0.0
2017-Jul-16 16:28N 37°57' W 008°53'0 0.0
2017-Jul-16 15:58N 37°57' W 008°53'0 0.0
2017-Jul-16 15:28N 37°57' W 008°53'0 0.0
2017-Jul-16 14:58N 37°57' W 008°53'0 0.0
2017-Jul-16 14:25N 37°57' W 008°53'0 0.0
2017-Jul-16 13:58N 37°57' W 008°53'0 0.0
2017-Jul-16 13:28N 37°57' W 008°53'0 0.0
2017-Jul-16 12:58N 37°57' W 008°53'0 0.4
2017-Jul-16 12:30N 37°57' W 008°53'2 3.6
2017-Jul-16 12:01N 37°55' W 008°53'1 2.9
2017-Jul-16 11:30N 37°53' W 008°52'0 0.5
2017-Jul-16 10:58N 37°53' W 008°52'0 0.0
2017-Jul-16 10:28N 37°53' W 008°52'0 0.0
2017-Jul-16 09:58N 37°53' W 008°52'0 0.1
2017-Jul-16 09:28N 37°53' W 008°52'0 0.0
2017-Jul-16 09:00N 37°53' W 008°52'0 0.0
2017-Jul-16 08:28N 37°53' W 008°52'0 0.0
2017-Jul-16 07:58N 37°53' W 008°52'0 0.0
2017-Jul-16 07:28N 37°53' W 008°52'0 0.0
2017-Jul-16 06:58N 37°53' W 008°52'0 0.0
2017-Jul-16 06:28N 37°53' W 008°52'0 0.4
2017-Jul-16 05:58N 37°53' W 008°52'0 1.1
2017-Jul-16 05:30N 37°54' W 008°53'1 1.8
2017-Jul-16 05:00N 37°54' W 008°54'2 3.8
2017-Jul-16 04:30N 37°53' W 008°52'0 0.3
2017-Jul-16 04:00N 37°53' W 008°52'0 0.1
2017-Jul-16 03:30N 37°53' W 008°52'0 0.1
2017-Jul-16 03:00N 37°53' W 008°52'0 0.0
2017-Jul-16 02:30N 37°53' W 008°52'0 0.0
2017-Jul-16 02:00N 37°53' W 008°52'0 0.1
2017-Jul-16 01:30N 37°53' W 008°52'0 0.0
2017-Jul-16 01:00N 37°53' W 008°52'0 0.0
2017-Jul-16 00:30N 37°53' W 008°52'0 0.0
2017-Jul-16 00:00N 37°53' W 008°52'0 0.0
2017-Jul-15 23:30N 37°53' W 008°52'0 0.0
2017-Jul-15 23:00N 37°53' W 008°52'0 0.3
2017-Jul-15 22:30N 37°53' W 008°52'0 0.4
2017-Jul-15 22:00N 37°53' W 008°52'0 0.1
2017-Jul-15 21:30N 37°53' W 008°52'2 3.5
2017-Jul-15 21:00N 37°54' W 008°54'4 7.4
2017-Jul-15 20:30N 37°54' W 008°59'611.8
2017-Jul-15 20:00N 37°54' W 009°07'713.2
2017-Jul-15 19:30N 37°58' W 009°13'713.4
2017-Jul-15 19:00N 38°03' W 009°19'713.4
2017-Jul-15 18:31N 38°07' W 009°26'713.2
2017-Jul-15 18:00N 38°12' W 009°32'713.4
2017-Jul-15 17:30N 38°16' W 009°38'713.2
2017-Jul-15 17:00N 38°21' W 009°45'713.4
2017-Jul-15 16:30N 38°25' W 009°51'713.6
2017-Jul-15 16:00N 38°29' W 009°58'713.8
2017-Jul-15 15:30N 38°34' W 010°04'714.3
2017-Jul-15 15:01N 38°41' W 010°06'1313.2
2017-Jul-15 14:00N 38°55' W 010°05'713.4
2017-Jul-15 13:30N 39°01' W 010°01'713.6
2017-Jul-15 13:01N 39°07' W 009°58'713.5
2017-Jul-15 12:30N 39°13' W 009°54'713.5
2017-Jul-15 12:01N 39°20' W 009°51'713.4
2017-Jul-15 11:30N 39°26' W 009°48'713.0
2017-Jul-15 11:00N 39°32' W 009°45'713.3
2017-Jul-15 10:30N 39°38' W 009°41'713.5
2017-Jul-15 10:00N 39°44' W 009°38'713.5
2017-Jul-15 09:30N 39°50' W 009°35'713.5
2017-Jul-15 09:00N 39°56' W 009°31'613.0
2017-Jul-15 08:31N 40°03' W 009°28'713.4
2017-Jul-15 08:00N 40°09' W 009°25'713.1
2017-Jul-15 07:30N 40°15' W 009°21'713.1
2017-Jul-15 07:01N 40°21' W 009°18'713.2
2017-Jul-15 06:30N 40°27' W 009°15'713.4
2017-Jul-15 06:00N 40°33' W 009°11'713.3
2017-Jul-15 05:31N 40°39' W 009°08'713.3
2017-Jul-15 05:00N 40°45' W 009°05'712.9
2017-Jul-15 04:27N 40°52' W 009°01'612.7
2017-Jul-15 03:57N 40°58' W 008°58'1312.4
2017-Jul-15 02:54N 41°09' W 008°48'4 9.1
2017-Jul-15 02:30N 41°11' W 008°44'1 2.8
2017-Jul-15 02:00N 41°12' W 008°45'0 0.0
2017-Jul-14 19:55N 41°12' W 008°45'0 0.0
2017-Jul-14 19:13N 41°12' W 008°45'0 0.1
2017-Jul-14 18:55N 41°12' W 008°45'0 0.0
2017-Jul-14 17:22N 41°12' W 008°45'0 0.7
2017-Jul-14 17:00N 41°12' W 008°45'2 3.2
2017-Jul-14 16:29N 41°10' W 008°46'1 1.8
2017-Jul-14 16:01N 41°10' W 008°46'1 2.6
2017-Jul-14 15:30N 41°09' W 008°48'0 0.3
2017-Jul-14 14:59N 41°09' W 008°48'0 0.0
2017-Jul-14 14:05N 41°09' W 008°48'0 0.1
2017-Jul-14 13:59N 41°09' W 008°48'0 0.0
2017-Jul-14 13:23N 41°09' W 008°48'0 0.0
2017-Jul-14 12:59N 41°09' W 008°48'0 0.0
2017-Jul-14 12:29N 41°09' W 008°48'0 0.0
2017-Jul-14 11:59N 41°09' W 008°48'0 0.0
2017-Jul-14 11:29N 41°09' W 008°48'0 0.0
2017-Jul-14 10:59N 41°09' W 008°48'0 0.0
2017-Jul-14 10:29N 41°09' W 008°48'0 0.0
2017-Jul-14 09:56N 41°09' W 008°48'0 0.0
2017-Jul-14 09:29N 41°09' W 008°48'0 0.0
2017-Jul-14 08:59N 41°09' W 008°48'0 0.0
2017-Jul-14 08:29N 41°09' W 008°48'0 0.0
2017-Jul-14 07:59N 41°09' W 008°48'0 0.0
2017-Jul-14 07:29N 41°09' W 008°48'0 0.0
2017-Jul-14 06:59N 41°09' W 008°48'0 0.0
2017-Jul-14 06:29N 41°09' W 008°48'0 0.0
2017-Jul-14 05:59N 41°09' W 008°48'0 0.0
2017-Jul-14 05:29N 41°09' W 008°48'0 0.0
2017-Jul-14 04:56N 41°09' W 008°48'0 0.0
2017-Jul-14 04:29N 41°09' W 008°48'0 0.0
2017-Jul-14 03:59N 41°09' W 008°48'0 0.0
2017-Jul-14 03:26N 41°09' W 008°48'0 0.0
2017-Jul-14 02:50N 41°09' W 008°48'0 0.1
2017-Jul-14 02:20N 41°09' W 008°48'0 0.0
2017-Jul-14 01:59N 41°09' W 008°48'0 0.0
2017-Jul-14 01:29N 41°09' W 008°48'0 0.0
2017-Jul-14 00:59N 41°09' W 008°48'0 0.0
2017-Jul-14 00:26N 41°09' W 008°48'0 0.0
2017-Jul-13 23:59N 41°09' W 008°48'0 0.1
2017-Jul-13 23:29N 41°09' W 008°48'0 0.0
2017-Jul-13 22:59N 41°09' W 008°48'0 0.0
2017-Jul-13 22:29N 41°09' W 008°48'0 0.0
2017-Jul-13 21:59N 41°09' W 008°48'0 0.0
2017-Jul-13 21:29N 41°09' W 008°48'0 0.1
2017-Jul-13 20:59N 41°09' W 008°48'0 0.0
2017-Jul-13 20:29N 41°09' W 008°48'0 0.0
2017-Jul-13 19:59N 41°09' W 008°48'0 0.0
2017-Jul-13 19:29N 41°09' W 008°48'0 0.0
2017-Jul-13 18:59N 41°09' W 008°48'0 0.1
2017-Jul-13 18:23N 41°09' W 008°48'0 0.0
2017-Jul-13 17:53N 41°09' W 008°48'0 0.2
2017-Jul-13 17:29N 41°09' W 008°48'0 0.0
2017-Jul-13 16:59N 41°09' W 008°48'0 0.0
2017-Jul-13 16:11N 41°09' W 008°48'0 0.1
2017-Jul-13 15:53N 41°09' W 008°48'0 0.1
2017-Jul-13 15:20N 41°09' W 008°48'0 0.3
2017-Jul-13 14:59N 41°09' W 008°48'0 0.0
2017-Jul-13 14:11N 41°09' W 008°48'0 0.0
2017-Jul-12 19:23N 41°09' W 008°48'0 0.0
2017-Jul-12 18:53N 41°09' W 008°48'0 0.0
2017-Jul-12 17:59N 41°09' W 008°48'0 0.1
2017-Jul-12 17:17N 41°09' W 008°48'0 0.0
2017-Jul-12 16:53N 41°09' W 008°48'0 0.0
2017-Jul-12 16:26N 41°09' W 008°48'0 0.0
2017-Jul-12 15:59N 41°09' W 008°48'4 0.2
2017-Jul-11 17:13N 41°06' W 008°52'0 1.7
2017-Jul-11 17:00N 41°07' W 008°52'1 1.7
2017-Jul-11 16:29N 41°07' W 008°53'1 1.5
2017-Jul-11 16:00N 41°08' W 008°54'1 1.5
2017-Jul-11 15:30N 41°08' W 008°54'1 1.5
2017-Jul-11 14:50N 41°09' W 008°55'0 1.5
2017-Jul-11 14:30N 41°10' W 008°56'1 1.5
2017-Jul-11 14:00N 41°10' W 008°56'1 1.5
2017-Jul-11 13:30N 41°11' W 008°57'1 1.5
2017-Jul-11 13:00N 41°11' W 008°58'1 1.6
2017-Jul-11 12:30N 41°11' W 008°59'1 1.6
2017-Jul-11 12:00N 41°12' W 008°59'1 1.5
2017-Jul-11 11:30N 41°13' W 009°00'1 1.5
2017-Jul-11 11:00N 41°13' W 009°01'1 1.5
2017-Jul-11 10:16N 41°14' W 009°02'1 1.1
2017-Jul-11 09:47N 41°14' W 009°03'1 2.8
2017-Jul-11 09:30N 41°13' W 009°02'6 9.0
2017-Jul-11 08:48N 41°08' W 008°58'412.1
2017-Jul-11 08:30N 41°04' W 008°55'4 1.9
2017-Jul-11 06:08N 41°00' W 008°53'1 1.6
2017-Jul-11 05:46N 41°01' W 008°53'1 1.7
2017-Jul-11 05:22N 41°01' W 008°54'1 1.8
2017-Jul-11 05:00N 41°02' W 008°54'4 1.8
2017-Jul-11 02:56N 41°05' W 008°57'1 1.9
2017-Jul-11 02:30N 41°06' W 008°58'2 2.0
2017-Jul-11 01:26N 41°07' W 009°00'1 2.1
2017-Jul-11 00:53N 41°08' W 009°01'1 2.1
2017-Jul-11 00:30N 41°08' W 009°02'1 2.1
2017-Jul-10 23:59N 41°09' W 009°03'1 2.1
2017-Jul-10 23:18N 41°10' W 009°05'1 2.1
2017-Jul-10 22:58N 41°10' W 009°05'  

Dump ship's entire track history